Marquette, MI

5:01 AM EST on December 22, 2014 (GMT -0500)
Harvey, MI | Change Station
CLOSE
Current Station
Personal Weather Station
Location: Marquette, MI
Elevation: 725 ft
Nearby Weather Stations
Active Advisory: Special Statement

Elev 725 ft 46.47 °N, 87.37 °W | Updated 11 minutes ago

Overcast
Overcast
36.2 °F
Feels Like 33 °F
N
4.0
Wind Variable Wind from SSE
Gusts 13.0 mph

Today
High -- | Low -- °F
--% Chance of Precip.
Yesterday
High -- | Low -- °F
Precip. -- in
8:30 AM 5:05 PM
New Moon, 0% visible
Pressure 29.90 in
Visibility 2.5 miles
Clouds Overcast 700 ft
Windchill 33 °F
Dew Point 33 °F
Humidity 88%
Rainfall 0.02 in
Snow Depth Not available.
UV 0.0 out of 12
Pollen .10 out of 12
Air Quality Not available.
Flu Activity Not available.
METAR KSAW 220957Z AUTO 19015G21KT 2 1/2SM -SN OVC007 01/00 A2990 RMK AO2 T00051002

More Conditions Fewer Conditions

Pressure 29.90 in
Visibility 2.5 miles
Clouds Overcast 700 ft
Windchill 33 °F
Dew Point 33 °F
Humidity 88%
Rainfall 0.02 in
Snow Depth Not available.
UV 0.0 out of 12
Pollen .10 out of 12
Air Quality Not available.
Flu Activity Not available.
METAR KSAW 220957Z AUTO 19015G21KT 2 1/2SM -SN OVC007 01/00 A2990 RMK AO2 T00051002

More Conditions Fewer Conditions

10-Day Weather Forecast

Almanac

Astronomy

Dec. 22, 2014 Rise Set
Actual Time
Civil Twilight
Nautical Twilight
Astronomical Twilight
Moon
Length of Visible Light
Length of Day
Tomorrow will be .
, % of the Moon is Illuminated

Today's Extremes

State Highs State Lows

Community

WunderPhotos

Upload Photos

1,779,583 photos uploaded!

WunderBlogs® & News

Nearby

Air Quality

  Air Quality AQ Index Pollutant
Not available.

Snow Depth

Station Depth Elevation

Earthquake Activity

City Distance Mag. Time & Date
Minimum magnitude displayed is 2.5.

Coastal Water Temperatures

Place Temperature

Nearby Weather Stations